KFCM/FCM METAR and TAF weather

Enter ICAO airport designator
Station Type Date Time Source
KFCM METAR 2020/09/23 01:53 UTC NOAA

KFCM 230153Z 14006KT 10SM CLR 22/14 A2998 RMK AO2 SLP151 T02170144


Station Type Date Time Source
KFCM Decoded METAR 2020/09/23 01:53 UTC NOAA

Minneapolis, Flying Cloud Airport, MN, United States (KFCM) 44-49-56N 093-28-13W 280M
Sep 22, 2020 - 09:53 PM EDT / 2020.09.23 0153 UTC
Wind: from the SE (140 degrees) at 7 MPH (6 KT):0
Visibility: 10 mile(s):0
Sky conditions: clear
Temperature: 71.1 F (21.7 C)
Dew Point: 57.9 F (14.4 C)
Relative Humidity: 63%
Pressure (altimeter): 29.98 in. Hg (1015 hPa)
ob: KFCM 230153Z 14006KT 10SM CLR 22/14 A2998 RMK AO2 SLP151 T02170144
cycle: 2

Station Type Date Time Source
KFCM TAF 2018/02/05 20:59 UTC NOAA

TAF
AMD KFCM 051959Z 0520/0618 27007KT 6SM -SHSN BKN020 OVC050
TEMPO 0520/0522 SCT020 BKN050
FM052200 27007KT P6SM FEW020 BKN100
FM060100 31007KT P6SM FEW200
FM061000 VRB03KT P6SM FEW250
AMD NOT SKED

Example: see airport list